Time,TemperatureF,DewpointF,PressureIn,WindDirection,WindDirectionDegrees,WindSpeedMPH,WindSpeedGustMPH,Humidity,HourlyPrecipIn,Conditions,Clouds,dailyrainin,SolarRadiationWatts/m^2,SoftwareType,DateUTC
2013-07-04 00:01:00,66.0,52.2,30.02,SE,141,4.0,6.0,61,0.00,,,0.00,0,Wunderground v.1.15,2013-07-04 05:01:00,
2013-07-04 00:07:00,65.8,52.0,30.02,SE,141,4.0,5.0,61,0.00,,,0.00,0,Wunderground v.1.15,2013-07-04 05:07:00,
2013-07-04 00:14:00,65.7,52.3,30.03,SE,141,4.0,6.0,62,0.00,,,0.00,0,Wunderground v.1.15,2013-07-04 05:14:00,
2013-07-04 00:19:00,65.7,52.3,30.03,SE,143,4.0,6.0,62,0.00,,,0.00,0,Wunderground v.1.15,2013-07-04 05:19:00,
2013-07-04 00:26:00,65.8,52.4,30.03,SE,143,5.0,5.0,62,0.00,,,0.00,0,Wunderground v.1.15,2013-07-04 05:26:00,
2013-07-04 00:32:00,65.8,52.4,30.03,SE,145,5.0,6.0,62,0.00,,,0.00,0,Wunderground v.1.15,2013-07-04 05:32:00,
2013-07-04 00:37:00,65.8,52.4,30.02,SE,145,5.0,7.0,62,0.00,,,0.00,0,Wunderground v.1.15,2013-07-04 05:37:00,
2013-07-04 00:44:00,65.8,52.4,30.02,SE,146,6.0,6.0,62,0.00,,,0.00,0,Wunderground v.1.15,2013-07-04 05:44:00,
2013-07-04 00:50:00,65.7,52.3,30.02,SE,146,5.0,6.0,62,0.00,,,0.00,0,Wunderground v.1.15,2013-07-04 05:50:00,
2013-07-04 00:56:00,65.6,52.2,30.02,SE,146,3.0,5.0,62,0.00,,,0.00,0,Wunderground v.1.15,2013-07-04 05:56:00,
2013-07-04 01:02:00,65.4,52.5,30.02,SE,146,3.0,5.0,63,0.00,,,0.00,0,Wunderground v.1.15,2013-07-04 06:02:00,
2013-07-04 01:08:00,65.2,52.3,30.02,SE,146,3.0,3.0,63,0.00,,,0.00,0,Wunderground v.1.15,2013-07-04 06:08:00,
2013-07-04 01:13:00,64.9,52.4,30.02,SE,145,3.0,3.0,64,0.00,,,0.00,0,Wunderground v.1.15,2013-07-04 06:13:00,
2013-07-04 01:20:00,64.5,52.5,30.02,SE,146,3.0,4.0,65,0.00,,,0.00,0,Wunderground v.1.15,2013-07-04 06:20:00,
2013-07-04 01:26:00,64.5,52.5,30.02,SE,146,4.0,4.0,65,0.00,,,0.00,0,Wunderground v.1.15,2013-07-04 06:26:00,
2013-07-04 01:32:00,64.7,52.7,30.02,SE,146,4.0,5.0,65,0.00,,,0.00,0,Wunderground v.1.15,2013-07-04 06:32:00,
2013-07-04 01:37:00,64.8,52.8,30.02,SE,146,3.0,4.0,65,0.00,,,0.00,0,Wunderground v.1.15,2013-07-04 06:37:00,
2013-07-04 01:44:00,64.5,52.9,30.02,SE,146,3.0,8.0,66,0.00,,,0.00,0,Wunderground v.1.15,2013-07-04 06:44:00,
2013-07-04 01:50:00,64.3,52.7,30.02,SE,145,3.0,8.0,66,0.00,,,0.00,0,Wunderground v.1.15,2013-07-04 06:50:00,
2013-07-04 01:55:00,64.1,52.5,30.02,SE,145,3.0,8.0,66,0.00,,,0.00,0,Wunderground v.1.15,2013-07-04 06:55:00,
2013-07-04 02:02:00,63.9,52.3,30.02,SE,145,3.0,8.0,66,0.00,,,0.00,0,Wunderground v.1.15,2013-07-04 07:02:00,
2013-07-04 02:07:00,63.6,52.4,30.02,SE,145,3.0,8.0,67,0.00,,,0.00,0,Wunderground v.1.15,2013-07-04 07:07:00,
2013-07-04 02:14:00,63.3,52.2,30.02,SE,145,3.0,8.0,67,0.00,,,0.00,0,Wunderground v.1.15,2013-07-04 07:14:00,
2013-07-04 02:19:00,63.3,52.2,30.02,SE,145,4.0,8.0,67,0.00,,,0.00,0,Wunderground v.1.15,2013-07-04 07:19:00,
2013-07-04 02:25:00,63.5,52.3,30.02,SE,145,4.0,8.0,67,0.00,,,0.00,0,Wunderground v.1.15,2013-07-04 07:25:00,
2013-07-04 02:32:00,63.5,52.7,30.01,SE,146,5.0,8.0,68,0.00,,,0.00,0,Wunderground v.1.15,2013-07-04 07:32:00,
2013-07-04 02:37:00,63.4,52.2,30.01,SSE,147,5.0,8.0,67,0.00,,,0.00,0,Wunderground v.1.15,2013-07-04 07:37:00,
2013-07-04 02:44:00,63.4,52.2,30.01,SSE,148,5.0,8.0,67,0.00,,,0.00,0,Wunderground v.1.15,2013-07-04 07:44:00,
2013-07-04 02:50:00,63.3,52.2,30.00,SSE,152,5.0,8.0,67,0.00,,,0.00,0,Wunderground v.1.15,2013-07-04 07:50:00,
2013-07-04 02:56:00,63.3,52.2,30.01,SSE,152,4.0,8.0,67,0.00,,,0.00,0,Wunderground v.1.15,2013-07-04 07:56:00,
2013-07-04 03:01:00,63.2,52.1,30.01,SSE,152,4.0,8.0,67,0.00,,,0.00,0,Wunderground v.1.15,2013-07-04 08:01:00,
2013-07-04 03:08:00,63.0,52.3,30.01,SSE,152,4.0,8.0,68,0.00,,,0.00,0,Wunderground v.1.15,2013-07-04 08:08:00,
2013-07-04 03:14:00,62.5,52.2,30.01,SSE,152,4.0,8.0,69,0.00,,,0.00,0,Wunderground v.1.15,2013-07-04 08:14:00,
2013-07-04 03:22:00,61.9,52.0,30.01,SSE,152,3.0,8.0,70,0.00,,,0.00,0,Wunderground v.1.15,2013-07-04 08:22:00,
2013-07-04 03:27:00,61.9,52.0,30.00,SSE,152,3.0,8.0,70,0.00,,,0.00,0,Wunderground v.1.15,2013-07-04 08:27:00,
2013-07-04 03:34:00,61.9,52.0,30.01,SSE,152,3.0,3.0,70,0.00,,,0.00,0,Wunderground v.1.15,2013-07-04 08:34:00,
2013-07-04 03:40:00,61.6,52.1,30.01,SSE,152,3.0,8.0,71,0.00,,,0.00,0,Wunderground v.1.15,2013-07-04 08:40:00,
2013-07-04 03:45:00,61.5,52.0,30.01,SSE,152,2.0,8.0,71,0.00,,,0.00,0,Wunderground v.1.15,2013-07-04 08:45:00,
2013-07-04 03:58:00,61.1,51.6,30.01,SSE,152,2.0,8.0,71,0.00,,,0.00,0,Wunderground v.1.15,2013-07-04 08:58:00,
2013-07-04 04:04:00,60.9,51.8,30.01,SSE,152,1.0,1.0,72,0.00,,,0.00,0,Wunderground v.1.15,2013-07-04 09:04:00,
2013-07-04 04:09:00,60.6,51.9,30.01,SSE,152,1.0,8.0,73,0.00,,,0.00,0,Wunderground v.1.15,2013-07-04 09:09:00,
2013-07-04 04:16:00,60.3,51.6,30.01,SSE,152,2.0,8.0,73,0.00,,,0.00,0,Wunderground v.1.15,2013-07-04 09:16:00,
2013-07-04 04:22:00,60.0,51.7,30.01,SSE,152,3.0,8.0,74,0.00,,,0.00,0,Wunderground v.1.15,2013-07-04 09:22:00,
2013-07-04 04:27:00,60.0,51.7,30.01,SSE,152,3.0,8.0,74,0.00,,,0.00,0,Wunderground v.1.15,2013-07-04 09:27:00,
2013-07-04 04:33:00,60.0,51.7,30.01,SSE,152,3.0,8.0,74,0.00,,,0.00,0,Wunderground v.1.15,2013-07-04 09:33:00,
2013-07-04 04:40:00,60.1,51.8,30.01,SSE,152,3.0,8.0,74,0.00,,,0.00,0,Wunderground v.1.15,2013-07-04 09:40:00,
2013-07-04 04:45:00,60.4,52.1,30.01,SSE,152,3.0,8.0,74,0.00,,,0.00,0,Wunderground v.1.15,2013-07-04 09:45:00,
2013-07-04 04:51:00,60.6,51.9,30.01,SSE,152,4.0,8.0,73,0.00,,,0.00,0,Wunderground v.1.15,2013-07-04 09:51:00,
2013-07-04 04:58:00,61.0,52.3,30.00,SSE,152,5.0,8.0,73,0.00,,,0.00,0,Wunderground v.1.15,2013-07-04 09:58:00,
2013-07-04 05:03:00,61.2,52.5,30.01,SSE,152,5.0,5.0,73,0.00,,,0.00,0,Wunderground v.1.15,2013-07-04 10:03:00,
2013-07-04 05:10:00,61.4,52.3,30.01,SSE,152,4.0,8.0,72,0.00,,,0.00,0,Wunderground v.1.15,2013-07-04 10:10:00,
2013-07-04 05:15:00,61.2,52.5,30.01,SSE,152,3.0,8.0,73,0.00,,,0.00,0,Wunderground v.1.15,2013-07-04 10:15:00,
2013-07-04 05:21:00,61.2,52.1,30.01,SSE,152,3.0,8.0,72,0.00,,,0.00,0,Wunderground v.1.15,2013-07-04 10:21:00,
2013-07-04 05:28:00,60.9,52.2,30.01,SSE,152,3.0,8.0,73,0.00,,,0.00,0,Wunderground v.1.15,2013-07-04 10:28:00,
2013-07-04 05:34:00,60.7,52.4,30.02,SSE,152,2.0,8.0,74,0.00,,,0.00,0,Wunderground v.1.15,2013-07-04 10:34:00,
2013-07-04 05:39:00,60.5,52.2,30.02,SSE,152,2.0,8.0,74,0.00,,,0.00,0,Wunderground v.1.15,2013-07-04 10:39:00,
2013-07-04 05:46:00,60.2,52.2,30.03,SSE,152,2.0,8.0,75,0.00,,,0.00,0,Wunderground v.1.15,2013-07-04 10:46:00,
2013-07-04 05:51:00,59.8,51.9,30.03,SSE,158,1.0,8.0,75,0.00,,,0.00,0,Wunderground v.1.15,2013-07-04 10:51:00,
2013-07-04 05:58:00,59.2,52.0,30.03,SSE,163,3.0,8.0,77,0.00,,,0.00,0,Wunderground v.1.15,2013-07-04 10:58:00,
2013-07-04 06:03:00,59.0,51.8,30.03,South,171,3.0,3.0,77,0.00,,,0.00,0,Wunderground v.1.15,2013-07-04 11:03:00,
2013-07-04 06:10:00,58.9,51.7,30.03,South,175,3.0,8.0,77,0.00,,,0.00,0,Wunderground v.1.15,2013-07-04 11:10:00,
2013-07-04 06:16:00,59.1,51.9,30.03,South,175,3.0,8.0,77,0.00,,,0.00,5,Wunderground v.1.15,2013-07-04 11:16:00,
2013-07-04 06:22:00,59.4,52.2,30.03,South,175,2.0,8.0,77,0.00,,,0.00,11,Wunderground v.1.15,2013-07-04 11:22:00,
2013-07-04 06:28:00,58.9,51.7,30.02,South,175,0.0,8.0,77,0.00,,,0.00,14,Wunderground v.1.15,2013-07-04 11:28:00,
2013-07-04 06:33:00,58.5,52.0,30.02,South,175,1.0,8.0,79,0.00,,,0.00,19,Wunderground v.1.15,2013-07-04 11:33:00,
2013-07-04 06:40:00,58.6,52.1,30.02,South,175,1.0,8.0,79,0.00,,,0.00,25,Wunderground v.1.15,2013-07-04 11:40:00,
2013-07-04 06:45:00,58.3,51.8,30.03,South,175,0.0,8.0,79,0.00,,,0.00,30,Wunderground v.1.15,2013-07-04 11:45:00,
2013-07-04 06:51:00,58.3,52.2,30.03,South,175,0.0,8.0,80,0.00,,,0.00,39,Wunderground v.1.15,2013-07-04 11:51:00,
2013-07-04 06:58:00,58.5,52.4,30.02,South,175,1.0,8.0,80,0.00,,,0.00,53,Wunderground v.1.15,2013-07-04 11:58:00,
2013-07-04 07:03:00,58.8,53.0,30.02,South,175,1.0,8.0,81,0.00,,,0.00,70,Wunderground v.1.15,2013-07-04 12:03:00,
2013-07-04 07:10:00,59.5,53.7,30.02,South,175,1.0,8.0,81,0.00,,,0.00,91,Wunderground v.1.15,2013-07-04 12:10:00,
2013-07-04 07:16:00,60.8,54.6,30.02,South,175,1.0,8.0,80,0.00,,,0.00,104,Wunderground v.1.15,2013-07-04 12:16:00,
2013-07-04 07:22:00,61.9,55.3,30.02,South,175,1.0,8.0,79,0.00,,,0.00,111,Wunderground v.1.15,2013-07-04 12:22:00,
2013-07-04 07:28:00,63.0,54.9,30.02,South,175,1.0,8.0,75,0.00,,,0.00,127,Wunderground v.1.15,2013-07-04 12:28:00,
2013-07-04 07:33:00,63.8,55.4,30.02,South,175,2.0,2.0,74,0.00,,,0.00,167,Wunderground v.1.15,2013-07-04 12:33:00,
2013-07-04 07:40:00,64.7,55.8,30.02,South,175,2.0,8.0,73,0.00,,,0.00,209,Wunderground v.1.15,2013-07-04 12:40:00,
2013-07-04 07:46:00,65.7,55.6,30.02,South,175,3.0,8.0,70,0.00,,,0.00,241,Wunderground v.1.15,2013-07-04 12:46:00,
2013-07-04 07:52:00,66.5,55.6,30.01,SSE,166,4.0,8.0,68,0.00,,,0.00,153,Wunderground v.1.15,2013-07-04 12:52:00,
2013-07-04 07:58:00,67.1,56.2,30.01,SSE,150,5.0,8.0,68,0.00,,,0.00,153,Wunderground v.1.15,2013-07-04 12:58:00,
2013-07-04 08:03:00,67.0,56.1,30.01,SE,143,5.0,5.0,68,0.00,,,0.00,169,Wunderground v.1.15,2013-07-04 13:03:00,
2013-07-04 08:10:00,67.1,56.2,30.01,SE,131,5.0,8.0,68,0.00,,,0.00,204,Wunderground v.1.15,2013-07-04 13:10:00,
2013-07-04 08:16:00,67.6,56.2,30.01,SE,129,6.0,8.0,67,0.00,,,0.00,353,Wunderground v.1.15,2013-07-04 13:16:00,
2013-07-04 08:22:00,68.8,56.6,30.02,SE,125,5.0,8.0,65,0.00,,,0.00,262,Wunderground v.1.15,2013-07-04 13:22:00,
2013-07-04 08:28:00,69.6,56.4,30.02,SE,130,4.0,8.0,63,0.00,,,0.00,308,Wunderground v.1.15,2013-07-04 13:28:00,
2013-07-04 08:34:00,70.0,56.4,30.02,SE,135,3.0,8.0,62,0.00,,,0.00,181,Wunderground v.1.15,2013-07-04 13:34:00,
2013-07-04 08:39:00,70.0,55.9,30.03,SE,135,4.0,8.0,61,0.00,,,0.00,141,Wunderground v.1.15,2013-07-04 13:39:00,
2013-07-04 08:46:00,69.8,56.2,30.03,SE,141,5.0,8.0,62,0.00,,,0.00,158,Wunderground v.1.15,2013-07-04 13:46:00,
2013-07-04 08:52:00,69.7,56.1,30.03,SE,146,5.0,8.0,62,0.00,,,0.00,153,Wunderground v.1.15,2013-07-04 13:52:00,
2013-07-04 08:57:00,69.7,55.6,30.03,SSE,155,5.0,8.0,61,0.00,,,0.00,127,Wunderground v.1.15,2013-07-04 13:57:00,
2013-07-04 09:04:00,69.5,55.9,30.03,SSE,154,6.0,6.0,62,0.00,,,0.00,128,Wunderground v.1.15,2013-07-04 14:04:00,
2013-07-04 09:09:00,69.4,56.3,30.04,SSE,150,6.0,8.0,63,0.00,,,0.00,155,Wunderground v.1.15,2013-07-04 14:09:00,
2013-07-04 09:16:00,69.4,55.8,30.04,SSE,150,6.0,8.0,62,0.00,,,0.00,181,Wunderground v.1.15,2013-07-04 14:16:00,
2013-07-04 09:21:00,69.7,56.5,30.04,SSE,155,5.0,8.0,63,0.00,,,0.00,199,Wunderground v.1.15,2013-07-04 14:21:00,
2013-07-04 09:28:00,70.2,56.1,30.04,SSE,158,4.0,8.0,61,0.00,,,0.00,227,Wunderground v.1.15,2013-07-04 14:28:00,
2013-07-04 09:33:00,70.6,56.5,30.04,SSE,164,5.0,8.0,61,0.00,,,0.00,258,Wunderground v.1.15,2013-07-04 14:33:00,
2013-07-04 09:39:00,70.9,56.3,30.03,SSE,164,5.0,8.0,60,0.00,,,0.00,287,Wunderground v.1.15,2013-07-04 14:39:00,
2013-07-04 09:46:00,71.7,57.1,30.04,SSE,156,4.0,8.0,60,0.00,,,0.00,316,Wunderground v.1.15,2013-07-04 14:46:00,
2013-07-04 09:52:00,72.3,57.6,30.03,SSE,147,5.0,8.0,60,0.00,,,0.00,503,Wunderground v.1.15,2013-07-04 14:52:00,
2013-07-04 09:58:00,73.7,59.4,30.04,SE,145,5.0,8.0,61,0.00,,,0.00,742,Wunderground v.1.15,2013-07-04 14:58:00,
2013-07-04 10:04:00,75.0,58.7,30.04,SSE,150,5.0,5.0,57,0.00,,,0.00,761,Wunderground v.1.15,2013-07-04 15:04:00,
2013-07-04 10:10:00,75.2,57.4,30.03,SE,143,5.0,8.0,54,0.00,,,0.00,290,Wunderground v.1.15,2013-07-04 15:10:00,
2013-07-04 10:16:00,74.9,57.1,30.03,SE,141,4.0,8.0,54,0.00,,,0.00,297,Wunderground v.1.15,2013-07-04 15:16:00,
2013-07-04 10:21:00,74.9,57.1,30.03,SSE,152,4.0,8.0,54,0.00,,,0.00,287,Wunderground v.1.15,2013-07-04 15:21:00,
2013-07-04 10:28:00,75.2,57.9,30.03,SSE,152,4.0,8.0,55,0.00,,,0.00,346,Wunderground v.1.15,2013-07-04 15:28:00,
2013-07-04 10:33:00,76.1,58.2,30.03,SSE,152,2.0,8.0,54,0.00,,,0.00,719,Wunderground v.1.15,2013-07-04 15:33:00,
2013-07-04 10:42:00,76.4,57.5,30.03,SSE,152,1.0,8.0,52,0.00,,,0.00,459,Wunderground v.1.15,2013-07-04 15:42:00,
2013-07-04 10:47:00,77.7,59.2,30.03,SSE,157,1.0,4.0,53,0.00,,,0.00,582,Wunderground v.1.15,2013-07-04 15:47:00,
2013-07-04 10:54:00,78.8,54.4,30.03,South,179,3.0,3.0,43,0.00,,,0.00,397,Wunderground v.1.15,2013-07-04 15:54:00,
2013-07-04 11:00:00,79.7,57.1,30.03,South,179,3.0,8.0,46,0.00,,,0.00,923,Wunderground v.1.15,2013-07-04 16:00:00,
2013-07-04 11:05:00,81.2,57.8,30.03,South,177,3.0,8.0,45,0.00,,,0.00,986,Wunderground v.1.15,2013-07-04 16:05:00,
2013-07-04 11:12:00,81.3,55.3,30.03,SSE,162,3.0,8.0,41,0.00,,,0.00,446,Wunderground v.1.15,2013-07-04 16:12:00,
2013-07-04 11:18:00,80.9,55.0,30.02,South,170,4.0,8.0,41,0.00,,,0.00,496,Wunderground v.1.15,2013-07-04 16:18:00,
2013-07-04 11:23:00,80.9,55.7,30.02,South,183,4.0,4.0,42,0.00,,,0.00,506,Wunderground v.1.15,2013-07-04 16:23:00,
2013-07-04 11:30:00,81.5,54.8,30.02,SSW,208,4.0,8.0,40,0.00,,,0.00,548,Wunderground v.1.15,2013-07-04 16:30:00,
2013-07-04 11:35:00,82.4,55.7,30.02,South,191,6.0,10.0,40,0.00,,,0.00,698,Wunderground v.1.15,2013-07-04 16:35:00,
2013-07-04 11:42:00,82.9,55.4,30.02,South,179,7.0,10.0,39,0.00,,,0.00,587,Wunderground v.1.15,2013-07-04 16:42:00,
2013-07-04 11:48:00,82.7,54.5,30.02,SSW,204,6.0,8.0,38,0.00,,,0.00,490,Wunderground v.1.15,2013-07-04 16:48:00,
2013-07-04 11:54:00,82.2,54.8,30.02,SSE,160,6.0,9.0,39,0.00,,,0.00,517,Wunderground v.1.15,2013-07-04 16:54:00,
2013-07-04 12:00:00,82.2,56.2,30.02,South,190,6.0,9.0,41,0.00,,,0.00,408,Wunderground v.1.15,2013-07-04 17:00:00,
2013-07-04 12:06:00,82.1,54.7,30.02,SSE,166,6.0,8.0,39,0.00,,,0.00,309,Wunderground v.1.15,2013-07-04 17:06:00,
2013-07-04 12:12:00,81.7,54.3,30.02,ESE,114,6.0,8.0,39,0.00,,,0.00,278,Wunderground v.1.15,2013-07-04 17:12:00,
2013-07-04 12:17:00,81.5,55.5,30.02,SSE,154,6.0,8.0,41,0.00,,,0.00,267,Wunderground v.1.15,2013-07-04 17:17:00,
2013-07-04 12:23:00,81.5,56.8,30.02,SSE,156,6.0,10.0,43,0.00,,,0.00,251,Wunderground v.1.15,2013-07-04 17:23:00,
2013-07-04 12:30:00,81.3,56.0,30.01,SSE,160,6.0,10.0,42,0.00,,,0.00,241,Wunderground v.1.15,2013-07-04 17:30:00,
2013-07-04 12:35:00,81.5,54.8,30.01,SSE,150,5.0,9.0,40,0.00,,,0.00,241,Wunderground v.1.15,2013-07-04 17:35:00,
2013-07-04 12:41:00,81.5,55.5,30.00,SE,140,6.0,9.0,41,0.00,,,0.00,260,Wunderground v.1.15,2013-07-04 17:41:00,
2013-07-04 12:48:00,81.7,55.0,30.00,SSE,156,6.0,8.0,40,0.00,,,0.00,274,Wunderground v.1.15,2013-07-04 17:48:00,
2013-07-04 12:53:00,82.0,56.0,30.00,SE,139,5.0,5.0,41,0.00,,,0.00,279,Wunderground v.1.15,2013-07-04 17:53:00,
2013-07-04 13:00:00,82.2,55.5,30.00,SE,138,5.0,8.0,40,0.00,,,0.00,281,Wunderground v.1.15,2013-07-04 18:00:00,
2013-07-04 13:06:00,82.4,56.3,30.00,SSE,151,5.0,8.0,41,0.00,,,0.00,301,Wunderground v.1.15,2013-07-04 18:06:00,
2013-07-04 13:12:00,82.5,55.7,30.00,SSE,149,5.0,8.0,40,0.00,,,0.00,309,Wunderground v.1.15,2013-07-04 18:12:00,
2013-07-04 13:18:00,82.9,55.4,29.99,SE,143,5.0,8.0,39,0.00,,,0.00,343,Wunderground v.1.15,2013-07-04 18:18:00,
2013-07-04 13:24:00,83.3,55.8,29.99,SE,141,5.0,5.0,39,0.00,,,0.00,397,Wunderground v.1.15,2013-07-04 18:24:00,
2013-07-04 13:30:00,83.7,56.8,29.99,SSE,147,5.0,8.0,40,0.00,,,0.00,478,Wunderground v.1.15,2013-07-04 18:30:00,
2013-07-04 13:36:00,84.5,56.8,29.99,SSE,152,4.0,8.0,39,0.00,,,0.00,357,Wunderground v.1.15,2013-07-04 18:36:00,
2013-07-04 13:41:00,85.4,56.2,29.98,SE,137,5.0,9.0,37,0.00,,,0.00,717,Wunderground v.1.15,2013-07-04 18:41:00,
2013-07-04 13:47:00,86.3,56.2,29.98,SE,143,6.0,11.0,36,0.00,,,0.00,499,Wunderground v.1.15,2013-07-04 18:47:00,
2013-07-04 13:54:00,86.5,54.0,29.98,SE,128,7.0,9.0,33,0.00,,,0.00,487,Wunderground v.1.15,2013-07-04 18:54:00,
2013-07-04 13:59:00,86.7,53.3,29.98,SE,129,6.0,11.0,32,0.00,,,0.00,599,Wunderground v.1.15,2013-07-04 18:59:00,
2013-07-04 14:06:00,87.2,56.2,29.98,ESE,123,8.0,10.0,35,0.00,,,0.00,566,Wunderground v.1.15,2013-07-04 19:06:00,
2013-07-04 14:11:00,88.4,53.9,29.98,SSE,154,8.0,11.0,31,0.00,,,0.00,448,Wunderground v.1.15,2013-07-04 19:11:00,
2013-07-04 14:18:00,89.1,56.2,29.97,SW,216,7.0,10.0,33,0.00,,,0.00,1136,Wunderground v.1.15,2013-07-04 19:18:00,
2013-07-04 14:23:00,89.8,55.1,29.97,SSE,158,6.0,6.0,31,0.00,,,0.00,1093,Wunderground v.1.15,2013-07-04 19:23:00,
2013-07-04 14:29:00,89.7,54.1,29.97,SE,142,5.0,9.0,30,0.00,,,0.00,1099,Wunderground v.1.15,2013-07-04 19:29:00,
2013-07-04 14:35:00,89.4,55.7,29.97,SSE,158,5.0,8.0,32,0.00,,,0.00,494,Wunderground v.1.15,2013-07-04 19:35:00,
2013-07-04 14:41:00,89.5,54.0,29.97,SSE,166,5.0,8.0,30,0.00,,,0.00,796,Wunderground v.1.15,2013-07-04 19:41:00,
2013-07-04 14:48:00,90.1,55.4,29.97,SSE,166,5.0,8.0,31,0.00,,,0.00,578,Wunderground v.1.15,2013-07-04 19:48:00,
2013-07-04 14:54:00,90.7,50.0,29.96,SSW,212,4.0,4.0,25,0.00,,,0.00,986,Wunderground v.1.15,2013-07-04 19:54:00,
2013-07-04 14:59:00,90.7,55.0,29.96,SSE,168,4.0,11.0,30,0.00,,,0.00,947,Wunderground v.1.15,2013-07-04 19:59:00,
2013-07-04 15:06:00,91.3,51.6,29.96,South,175,5.0,8.0,26,0.00,,,0.00,912,Wunderground v.1.15,2013-07-04 20:06:00,
2013-07-04 15:12:00,90.5,52.0,29.95,South,179,6.0,8.0,27,0.00,,,0.00,891,Wunderground v.1.15,2013-07-04 20:12:00,
2013-07-04 15:17:00,89.8,49.3,29.95,SSE,161,4.0,8.0,25,0.00,,,0.00,179,Wunderground v.1.15,2013-07-04 20:17:00,
2013-07-04 15:24:00,88.8,52.4,29.95,SSE,148,4.0,8.0,29,0.00,,,0.00,250,Wunderground v.1.15,2013-07-04 20:24:00,
2013-07-04 15:29:00,88.9,51.6,29.95,ESE,109,7.0,16.0,28,0.00,,,0.00,287,Wunderground v.1.15,2013-07-04 20:29:00,
2013-07-04 15:36:00,90.8,51.2,29.95,SE,141,8.0,13.0,26,0.00,,,0.00,255,Wunderground v.1.15,2013-07-04 20:36:00,
2013-07-04 15:41:00,89.9,52.4,29.95,SSE,152,7.0,13.0,28,0.00,,,0.00,206,Wunderground v.1.15,2013-07-04 20:41:00,
2013-07-04 15:48:00,89.0,50.7,29.95,SSE,147,6.0,8.0,27,0.00,,,0.00,165,Wunderground v.1.15,2013-07-04 20:48:00,
2013-07-04 15:53:00,88.5,51.2,29.95,South,176,6.0,10.0,28,0.00,,,0.00,167,Wunderground v.1.15,2013-07-04 20:53:00,
2013-07-04 16:00:00,88.1,51.8,29.95,SE,137,7.0,10.0,29,0.00,,,0.00,178,Wunderground v.1.15,2013-07-04 21:00:00,
2013-07-04 16:06:00,87.7,51.5,29.94,SE,143,6.0,8.0,29,0.00,,,0.00,207,Wunderground v.1.15,2013-07-04 21:06:00,
2013-07-04 16:11:00,87.7,53.3,29.94,SSE,150,5.0,8.0,31,0.00,,,0.00,264,Wunderground v.1.15,2013-07-04 21:11:00,
2013-07-04 16:18:00,88.1,53.7,29.94,SSE,152,6.0,9.0,31,0.00,,,0.00,383,Wunderground v.1.15,2013-07-04 21:18:00,
2013-07-04 16:24:00,88.6,57.4,29.94,SE,125,7.0,8.0,35,0.00,,,0.00,853,Wunderground v.1.15,2013-07-04 21:24:00,
2013-07-04 16:29:00,88.8,54.3,29.94,ESE,120,6.0,9.0,31,0.00,,,0.00,693,Wunderground v.1.15,2013-07-04 21:29:00,
2013-07-04 16:36:00,89.4,56.5,29.94,ESE,123,4.0,8.0,33,0.00,,,0.00,805,Wunderground v.1.15,2013-07-04 21:36:00,
2013-07-04 16:41:00,90.1,57.1,29.94,ESE,123,4.0,8.0,33,0.00,,,0.00,800,Wunderground v.1.15,2013-07-04 21:41:00,
2013-07-04 16:48:00,90.8,54.2,29.94,SSE,154,5.0,11.0,29,0.00,,,0.00,758,Wunderground v.1.15,2013-07-04 21:48:00,
2013-07-04 16:53:00,91.3,53.6,29.93,SSE,150,7.0,9.0,28,0.00,,,0.00,712,Wunderground v.1.15,2013-07-04 21:53:00,
2013-07-04 17:00:00,90.9,52.3,29.94,SSE,150,9.0,10.0,27,0.00,,,0.00,719,Wunderground v.1.15,2013-07-04 22:00:00,
2013-07-04 17:05:00,90.1,51.6,29.93,SSE,157,10.0,10.0,27,0.00,,,0.00,297,Wunderground v.1.15,2013-07-04 22:05:00,
2013-07-04 17:11:00,89.8,52.3,29.93,SSE,164,9.0,10.0,28,0.00,,,0.00,686,Wunderground v.1.15,2013-07-04 22:11:00,
2013-07-04 17:18:00,89.4,52.0,29.93,SE,145,7.0,8.0,28,0.00,,,0.00,244,Wunderground v.1.15,2013-07-04 22:18:00,
2013-07-04 17:24:00,88.9,55.2,29.93,ESE,123,6.0,6.0,32,0.00,,,0.00,236,Wunderground v.1.15,2013-07-04 22:24:00,
2013-07-04 17:29:00,88.4,54.8,29.93,ESE,121,6.0,8.0,32,0.00,,,0.00,629,Wunderground v.1.15,2013-07-04 22:29:00,
2013-07-04 17:36:00,88.5,54.0,29.93,SE,126,8.0,13.0,31,0.00,,,0.00,540,Wunderground v.1.15,2013-07-04 22:36:00,
2013-07-04 17:42:00,88.6,55.0,29.93,ESE,120,10.0,13.0,32,0.00,,,0.00,485,Wunderground v.1.15,2013-07-04 22:42:00,
2013-07-04 17:47:00,88.6,55.0,29.93,ESE,123,9.0,9.0,32,0.00,,,0.00,480,Wunderground v.1.15,2013-07-04 22:47:00,
2013-07-04 17:54:00,88.6,55.0,29.93,SE,125,8.0,8.0,32,0.00,,,0.00,464,Wunderground v.1.15,2013-07-04 22:54:00,
2013-07-04 17:59:00,88.6,55.0,29.92,SE,139,7.0,8.0,32,0.00,,,0.00,454,Wunderground v.1.15,2013-07-04 22:59:00,
2013-07-04 18:06:00,88.8,55.1,29.92,ESE,114,7.0,13.0,32,0.00,,,0.00,431,Wunderground v.1.15,2013-07-04 23:06:00,
2013-07-04 18:12:00,88.9,56.1,29.92,SE,124,7.0,13.0,33,0.00,,,0.00,406,Wunderground v.1.15,2013-07-04 23:12:00,
2013-07-04 18:18:00,89.0,56.2,29.92,ESE,114,7.0,9.0,33,0.00,,,0.00,387,Wunderground v.1.15,2013-07-04 23:18:00,
2013-07-04 18:24:00,89.1,56.2,29.92,ESE,116,8.0,8.0,33,0.00,,,0.00,360,Wunderground v.1.15,2013-07-04 23:24:00,
2013-07-04 18:30:00,89.1,57.1,29.92,SE,133,8.0,9.0,34,0.00,,,0.00,346,Wunderground v.1.15,2013-07-04 23:30:00,
2013-07-04 18:36:00,89.0,56.2,29.92,SE,138,9.0,12.0,33,0.00,,,0.00,322,Wunderground v.1.15,2013-07-04 23:36:00,
2013-07-04 18:41:00,88.8,56.0,29.92,ESE,120,10.0,15.0,33,0.00,,,0.00,308,Wunderground v.1.15,2013-07-04 23:41:00,
2013-07-04 18:48:00,88.6,55.8,29.92,ESE,117,10.0,11.0,33,0.00,,,0.00,295,Wunderground v.1.15,2013-07-04 23:48:00,
2013-07-04 18:53:00,88.5,56.6,29.92,ESE,120,8.0,8.0,34,0.00,,,0.00,279,Wunderground v.1.15,2013-07-04 23:53:00,
2013-07-04 19:00:00,88.2,56.3,29.92,SE,129,8.0,12.0,34,0.00,,,0.00,264,Wunderground v.1.15,2013-07-05 00:00:00,
2013-07-04 19:06:00,88.0,56.1,29.92,ESE,121,8.0,10.0,34,0.00,,,0.00,244,Wunderground v.1.15,2013-07-05 00:06:00,
2013-07-04 19:12:00,87.7,54.2,29.92,SE,127,9.0,11.0,32,0.00,,,0.00,229,Wunderground v.1.15,2013-07-05 00:12:00,
2013-07-04 19:18:00,87.5,54.9,29.92,SE,137,10.0,11.0,33,0.00,,,0.00,88,Wunderground v.1.15,2013-07-05 00:18:00,
2013-07-04 19:24:00,86.9,54.3,29.92,SSE,147,9.0,9.0,33,0.00,,,0.00,79,Wunderground v.1.15,2013-07-05 00:24:00,
2013-07-04 19:30:00,86.3,53.8,29.92,SE,129,9.0,11.0,33,0.00,,,0.00,165,Wunderground v.1.15,2013-07-05 00:30:00,
2013-07-04 19:35:00,85.9,54.3,29.92,SE,141,9.0,12.0,34,0.00,,,0.00,155,Wunderground v.1.15,2013-07-05 00:35:00,
2013-07-04 19:42:00,85.7,54.1,29.92,SE,141,9.0,12.0,34,0.00,,,0.00,132,Wunderground v.1.15,2013-07-05 00:42:00,
2013-07-04 19:48:00,85.3,54.5,29.93,SSE,154,7.0,8.0,35,0.00,,,0.00,111,Wunderground v.1.15,2013-07-05 00:48:00,
2013-07-04 19:53:00,85.0,54.3,29.93,SE,132,6.0,8.0,35,0.00,,,0.00,51,Wunderground v.1.15,2013-07-05 00:53:00,
2013-07-04 20:00:00,84.4,54.5,29.93,SSE,156,6.0,10.0,36,0.00,,,0.00,42,Wunderground v.1.15,2013-07-05 01:00:00,
2013-07-04 20:06:00,83.9,54.8,29.93,SE,142,6.0,8.0,37,0.00,,,0.00,42,Wunderground v.1.15,2013-07-05 01:06:00,
2013-07-04 20:12:00,83.4,55.1,29.93,SSE,148,6.0,8.0,38,0.00,,,0.00,39,Wunderground v.1.15,2013-07-05 01:12:00,
2013-07-04 20:18:00,82.9,54.7,29.93,SSE,147,6.0,9.0,38,0.00,,,0.00,33,Wunderground v.1.15,2013-07-05 01:18:00,
2013-07-04 20:24:00,82.4,55.0,29.93,SE,139,6.0,8.0,39,0.00,,,0.00,28,Wunderground v.1.15,2013-07-05 01:24:00,
2013-07-04 20:30:00,81.9,54.5,29.92,SSE,150,5.0,8.0,39,0.00,,,0.00,19,Wunderground v.1.15,2013-07-05 01:30:00,
2013-07-04 20:36:00,81.5,54.8,29.93,SE,143,5.0,8.0,40,0.00,,,0.00,14,Wunderground v.1.15,2013-07-05 01:36:00,
2013-07-04 20:41:00,81.0,55.1,29.93,SE,146,6.0,8.0,41,0.00,,,0.00,12,Wunderground v.1.15,2013-07-05 01:41:00,
2013-07-04 20:48:00,80.5,54.6,29.93,SE,140,5.0,8.0,41,0.00,,,0.00,7,Wunderground v.1.15,2013-07-05 01:48:00,
2013-07-04 20:54:00,79.9,54.8,29.93,SSE,150,4.0,8.0,42,0.00,,,0.00,0,Wunderground v.1.15,2013-07-05 01:54:00,
2013-07-04 20:59:00,79.3,54.9,29.93,SE,139,4.0,8.0,43,0.00,,,0.00,0,Wunderground v.1.15,2013-07-05 01:59:00,
2013-07-04 21:06:00,78.6,55.5,29.94,SE,145,4.0,8.0,45,0.00,,,0.00,0,Wunderground v.1.15,2013-07-05 02:06:00,
2013-07-04 21:11:00,77.9,55.5,29.94,SE,141,3.0,8.0,46,0.00,,,0.00,0,Wunderground v.1.15,2013-07-05 02:11:00,
2013-07-04 21:18:00,77.2,55.4,29.94,SE,139,3.0,8.0,47,0.00,,,0.00,0,Wunderground v.1.15,2013-07-05 02:18:00,
2013-07-04 21:23:00,76.5,55.3,29.94,SE,136,4.0,4.0,48,0.00,,,0.00,0,Wunderground v.1.15,2013-07-05 02:23:00,
2013-07-04 21:29:00,76.0,55.5,29.94,SE,143,4.0,8.0,49,0.00,,,0.00,0,Wunderground v.1.15,2013-07-05 02:29:00,
2013-07-04 21:36:00,75.7,55.2,29.94,SE,137,4.0,8.0,49,0.00,,,0.00,0,Wunderground v.1.15,2013-07-05 02:36:00,
2013-07-04 21:41:00,75.7,55.2,29.94,SSE,148,4.0,8.0,49,0.00,,,0.00,0,Wunderground v.1.15,2013-07-05 02:41:00,
2013-07-04 21:47:00,75.7,55.2,29.94,SE,143,4.0,8.0,49,0.00,,,0.00,0,Wunderground v.1.15,2013-07-05 02:47:00,
2013-07-04 21:54:00,75.6,55.6,29.94,SE,145,4.0,8.0,50,0.00,,,0.00,0,Wunderground v.1.15,2013-07-05 02:54:00,
2013-07-04 21:59:00,75.4,55.5,29.94,SE,143,4.0,8.0,50,0.00,,,0.00,0,Wunderground v.1.15,2013-07-05 02:59:00,
2013-07-04 22:06:00,75.1,55.7,29.95,SE,145,4.0,8.0,51,0.00,,,0.00,0,Wunderground v.1.15,2013-07-05 03:06:00,
2013-07-04 22:11:00,74.8,56.0,29.95,SE,141,4.0,8.0,52,0.00,,,0.00,0,Wunderground v.1.15,2013-07-05 03:11:00,
2013-07-04 22:17:00,74.6,55.8,29.95,SE,144,4.0,8.0,52,0.00,,,0.00,0,Wunderground v.1.15,2013-07-05 03:17:00,
2013-07-04 22:24:00,74.4,55.6,29.95,SE,134,5.0,8.0,52,0.00,,,0.00,0,Wunderground v.1.15,2013-07-05 03:24:00,
2013-07-04 22:29:00,74.4,56.2,29.95,SE,144,5.0,8.0,53,0.00,,,0.00,0,Wunderground v.1.15,2013-07-05 03:29:00,
2013-07-04 22:36:00,74.4,56.2,29.95,SE,135,5.0,8.0,53,0.00,,,0.00,0,Wunderground v.1.15,2013-07-05 03:36:00,
2013-07-04 22:41:00,74.4,56.2,29.95,SE,137,5.0,8.0,53,0.00,,,0.00,0,Wunderground v.1.15,2013-07-05 03:41:00,
2013-07-04 22:48:00,74.4,56.2,29.95,SE,142,5.0,8.0,53,0.00,,,0.00,0,Wunderground v.1.15,2013-07-05 03:48:00,
2013-07-04 22:53:00,74.4,56.2,29.95,SE,141,5.0,8.0,53,0.00,,,0.00,0,Wunderground v.1.15,2013-07-05 03:53:00,
2013-07-04 23:00:00,74.3,56.6,29.96,SE,135,5.0,8.0,54,0.00,,,0.00,0,Wunderground v.1.15,2013-07-05 04:00:00,
2013-07-04 23:02:00,74.3,56.6,29.96,SE,142,5.0,8.0,54,0.00,,,0.00,0,Wunderground v.1.15,2013-07-05 04:02:00,
2013-07-04 23:04:00,74.3,56.6,29.96,SE,145,5.0,8.0,54,0.00,,,0.00,0,Wunderground v.1.15,2013-07-05 04:04:00,
2013-07-04 23:10:00,74.2,56.5,29.96,SE,141,5.0,8.0,54,0.00,,,0.00,0,Wunderground v.1.15,2013-07-05 04:10:00,
2013-07-04 23:12:00,74.2,56.5,29.96,SE,134,5.0,8.0,54,0.00,,,0.00,0,Wunderground v.1.15,2013-07-05 04:12:00,
2013-07-04 23:13:00,74.2,56.5,29.96,SSE,151,5.0,8.0,54,0.00,,,0.00,0,Wunderground v.1.15,2013-07-05 04:13:00,
2013-07-04 23:19:00,74.1,56.4,29.96,SSE,156,5.0,8.0,54,0.00,,,0.00,0,Wunderground v.1.15,2013-07-05 04:19:00,
2013-07-04 23:26:00,74.1,56.9,29.96,SE,138,6.0,8.0,55,0.00,,,0.00,0,Wunderground v.1.15,2013-07-05 04:26:00,
2013-07-04 23:31:00,74.1,56.9,29.96,SSE,155,6.0,8.0,55,0.00,,,0.00,0,Wunderground v.1.15,2013-07-05 04:31:00,
2013-07-04 23:36:00,74.2,57.5,29.96,SSE,151,6.0,8.0,56,0.00,,,0.00,0,Wunderground v.1.15,2013-07-05 04:36:00,
2013-07-04 23:42:00,74.2,58.0,29.96,SSE,156,7.0,12.0,57,0.00,,,0.00,0,Wunderground v.1.15,2013-07-05 04:42:00,
2013-07-04 23:47:00,74.3,58.1,29.96,SSE,150,7.0,8.0,57,0.00,,,0.00,0,Wunderground v.1.15,2013-07-05 04:47:00,
2013-07-04 23:53:00,74.3,58.6,29.96,SSE,162,7.0,8.0,58,0.00,,,0.00,0,Wunderground v.1.15,2013-07-05 04:53:00,
2013-07-04 23:59:00,74.3,59.0,29.97,SSE,160,7.0,8.0,59,0.00,,,0.00,0,Wunderground v.1.15,2013-07-05 04:59:00,